createdAt,value
2019-02-18T00:00:46.581Z,3.00
2019-02-18T00:03:15.254Z,3.00
2019-02-18T00:05:43.502Z,3.00
2019-02-18T00:08:11.771Z,3.00
2019-02-18T00:10:40.079Z,2.90
2019-02-18T00:13:08.378Z,2.80
2019-02-18T00:15:36.649Z,2.80
2019-02-18T00:18:04.923Z,2.70
2019-02-18T00:20:33.191Z,2.70
2019-02-18T00:23:07.395Z,2.80
2019-02-18T00:25:35.663Z,2.90
2019-02-18T00:28:09.774Z,3.10
2019-02-18T00:30:38.034Z,3.20
2019-02-18T00:33:06.260Z,3.30
2019-02-18T00:35:34.532Z,3.30
2019-02-18T00:38:02.839Z,3.40
2019-02-18T00:40:31.152Z,3.50
2019-02-18T00:43:00.668Z,3.60
2019-02-18T00:45:28.850Z,3.60
2019-02-18T00:47:57.132Z,3.60
2019-02-18T00:50:25.398Z,3.70
2019-02-18T00:52:53.665Z,3.80
2019-02-18T00:55:21.927Z,4.00
2019-02-18T00:57:50.205Z,4.10
2019-02-18T01:00:18.497Z,4.10
2019-02-18T01:02:46.761Z,4.00
2019-02-18T01:05:15.051Z,4.00
2019-02-18T01:07:43.338Z,3.90
2019-02-18T01:10:12.133Z,3.70
2019-02-18T01:12:40.398Z,3.60
2019-02-18T01:15:11.184Z,3.60
2019-02-18T01:17:39.441Z,3.60
2019-02-18T01:20:10.143Z,3.40
2019-02-18T01:22:38.414Z,3.40
2019-02-18T01:25:17.549Z,3.20
2019-02-18T01:27:45.826Z,3.10
2019-02-18T01:30:15.338Z,3.00
2019-02-18T01:32:43.600Z,2.80
2019-02-18T01:35:11.868Z,2.60
2019-02-18T01:37:45.777Z,2.50
2019-02-18T01:40:12.351Z,2.40
2019-02-18T01:42:40.637Z,2.30
2019-02-18T01:45:11.346Z,2.10
2019-02-18T01:47:39.620Z,2.10
2019-02-18T01:50:10.554Z,2.00
2019-02-18T01:52:43.270Z,2.00
2019-02-18T01:55:12.855Z,2.10
2019-02-18T01:57:41.174Z,2.20
2019-02-18T02:00:14.832Z,2.20
2019-02-18T02:02:43.100Z,2.30
2019-02-18T02:05:12.891Z,2.40
2019-02-18T02:07:41.185Z,2.40
2019-02-18T02:10:11.693Z,2.30
2019-02-18T02:12:39.997Z,2.30
2019-02-18T02:15:17.291Z,2.20
2019-02-18T02:17:45.597Z,2.10
2019-02-18T02:20:13.859Z,2.10
2019-02-18T02:22:43.893Z,2.00
2019-02-18T02:25:12.167Z,2.00
2019-02-18T02:27:40.452Z,1.90
2019-02-18T02:30:10.003Z,2.00
2019-02-18T02:32:46.175Z,2.10
2019-02-18T02:35:14.459Z,2.10
2019-02-18T02:37:42.742Z,2.20
2019-02-18T02:40:10.981Z,2.30
2019-02-18T02:42:39.277Z,2.30
2019-02-18T02:45:08.362Z,2.30
2019-02-18T02:47:36.625Z,2.20
2019-02-18T02:50:05.954Z,2.20
2019-02-18T02:52:34.217Z,2.10
2019-02-18T02:55:02.494Z,2.00
2019-02-18T02:57:30.730Z,1.90
2019-02-18T02:59:58.971Z,1.90
2019-02-18T03:02:27.256Z,1.80
2019-02-18T03:04:55.522Z,1.70
2019-02-18T03:07:23.903Z,1.70
2019-02-18T03:09:52.190Z,1.80
2019-02-18T03:12:20.459Z,1.80
2019-02-18T03:14:48.711Z,1.80
2019-02-18T03:17:16.995Z,1.70
2019-02-18T03:19:45.287Z,1.60
2019-02-18T03:22:13.566Z,1.60
2019-02-18T03:25:01.785Z,1.50
2019-02-18T03:27:30.061Z,1.50
2019-02-18T03:30:20.852Z,1.60
2019-02-18T03:32:49.257Z,1.60
2019-02-18T03:35:17.527Z,1.70
2019-02-18T03:37:45.803Z,1.60
2019-02-18T03:40:14.079Z,1.70
2019-02-18T03:42:42.358Z,1.60
2019-02-18T03:45:10.643Z,1.50
2019-02-18T03:47:38.929Z,1.50
2019-02-18T03:50:07.199Z,1.40
2019-02-18T03:52:35.480Z,1.30
2019-02-18T03:55:03.810Z,1.20
2019-02-18T03:57:32.095Z,1.20
2019-02-18T04:00:00.363Z,1.20
2019-02-18T04:02:28.675Z,1.20
2019-02-18T04:04:56.937Z,1.20
2019-02-18T04:07:25.203Z,1.20
2019-02-18T04:09:53.500Z,1.10
2019-02-18T04:12:21.749Z,1.10
2019-02-18T04:14:50.007Z,1.00
2019-02-18T04:17:18.289Z,1.00
2019-02-18T04:19:46.577Z,1.00
2019-02-18T04:22:14.833Z,1.00
2019-02-18T04:24:43.098Z,1.00
2019-02-18T04:27:11.364Z,1.00
2019-02-18T04:29:39.626Z,1.00
2019-02-18T04:32:07.907Z,1.00
2019-02-18T04:34:36.169Z,0.90
2019-02-18T04:37:04.481Z,0.80
2019-02-18T04:39:34.067Z,0.70
2019-02-18T04:42:02.313Z,0.70
2019-02-18T04:44:30.626Z,0.60
2019-02-18T04:46:58.858Z,0.60
2019-02-18T04:49:30.041Z,0.60
2019-02-18T04:51:58.297Z,0.70
2019-02-18T04:54:26.595Z,0.70
2019-02-18T04:56:54.887Z,0.80
2019-02-18T04:59:23.274Z,0.80
2019-02-18T05:01:51.511Z,0.80
2019-02-18T05:04:19.797Z,0.70
2019-02-18T05:06:48.030Z,0.70
2019-02-18T05:09:16.293Z,0.60
2019-02-18T05:11:44.575Z,0.50
2019-02-18T05:14:12.822Z,0.50
2019-02-18T05:16:41.092Z,0.50
2019-02-18T05:19:09.345Z,0.40
2019-02-18T05:21:37.667Z,0.50
2019-02-18T05:24:05.927Z,0.40
2019-02-18T05:26:34.158Z,0.30
2019-02-18T05:29:02.571Z,0.30
2019-02-18T05:31:30.825Z,0.20
2019-02-18T05:33:59.110Z,0.20
2019-02-18T05:36:27.355Z,0.10
2019-02-18T05:38:55.601Z,0.00
2019-02-18T05:41:23.855Z,0.00
2019-02-18T05:43:52.112Z,0.00
2019-02-18T05:46:20.412Z,-0.10
2019-02-18T05:48:49.442Z,-0.10
2019-02-18T05:51:17.707Z,-0.10
2019-02-18T05:53:45.990Z,-0.10
2019-02-18T05:56:14.231Z,-0.20
2019-02-18T05:58:42.559Z,-0.20
2019-02-18T06:01:10.901Z,-0.10
2019-02-18T06:03:39.198Z,-0.20
2019-02-18T06:06:07.472Z,-0.20
2019-02-18T06:08:35.736Z,-0.30
2019-02-18T06:11:05.467Z,-0.20
2019-02-18T06:13:33.719Z,-0.20
2019-02-18T06:16:01.992Z,-0.20
2019-02-18T06:18:30.252Z,-0.20
2019-02-18T06:20:58.538Z,-0.20
2019-02-18T06:23:26.818Z,-0.20
2019-02-18T06:25:55.068Z,-0.20
2019-02-18T06:28:27.189Z,-0.20
2019-02-18T06:30:55.549Z,-0.20
2019-02-18T06:33:23.905Z,-0.20
2019-02-18T06:35:52.142Z,-0.20
2019-02-18T06:38:20.411Z,-0.10
2019-02-18T06:40:48.666Z,-0.10
2019-02-18T06:43:16.947Z,0.00
2019-02-18T06:45:55.338Z,0.00
2019-02-18T06:48:25.235Z,0.00
2019-02-18T06:50:54.152Z,0.10
2019-02-18T06:53:27.152Z,0.10
2019-02-18T06:55:55.421Z,0.10
2019-02-18T06:58:25.343Z,0.00
2019-02-18T07:00:55.208Z,0.00
2019-02-18T07:06:10.210Z,0.10
2019-02-18T07:08:43.119Z,0.10
2019-02-18T07:11:13.010Z,0.10
2019-02-18T07:13:41.339Z,0.10
2019-02-18T07:16:09.613Z,0.20
2019-02-18T07:18:37.914Z,0.30
2019-02-18T07:21:06.153Z,0.30
2019-02-18T07:23:34.431Z,0.40
2019-02-18T07:26:02.676Z,0.50
2019-02-18T07:28:30.953Z,0.60
2019-02-18T07:30:59.195Z,0.70
2019-02-18T07:33:27.503Z,0.90
2019-02-18T07:35:55.778Z,1.00
2019-02-18T07:38:24.036Z,1.10
2019-02-18T07:40:52.281Z,1.00
2019-02-18T07:43:20.557Z,1.10
2019-02-18T07:45:49.010Z,1.10
2019-02-18T07:48:17.261Z,1.10
2019-02-18T07:50:45.502Z,1.20
2019-02-18T07:53:13.816Z,1.20
2019-02-18T07:55:42.062Z,1.30
2019-02-18T07:58:11.807Z,1.30
2019-02-18T08:00:40.076Z,1.40
2019-02-18T08:03:08.343Z,1.60
2019-02-18T08:05:36.613Z,1.80
2019-02-18T08:08:04.894Z,2.00
2019-02-18T08:10:33.138Z,2.30
2019-02-18T08:13:01.412Z,2.70
2019-02-18T08:15:29.667Z,3.20
2019-02-18T08:17:57.915Z,3.60
2019-02-18T08:20:26.163Z,3.90
2019-02-18T08:22:54.442Z,4.10
2019-02-18T08:25:22.688Z,4.40
2019-02-18T08:27:50.970Z,4.50
2019-02-18T08:30:19.215Z,4.60
2019-02-18T08:32:47.486Z,4.80
2019-02-18T08:35:15.816Z,4.70
2019-02-18T08:37:44.086Z,4.70
2019-02-18T08:40:21.714Z,4.90
2019-02-18T08:42:42.418Z,5.20
2019-02-18T08:45:12.100Z,5.30
2019-02-18T08:47:40.383Z,5.40
2019-02-18T08:50:10.875Z,5.20
2019-02-18T08:52:39.107Z,5.10
2019-02-18T08:55:12.716Z,5.00
2019-02-18T08:57:41.015Z,4.90
2019-02-18T09:00:14.939Z,5.00
2019-02-18T09:02:43.227Z,5.10
2019-02-18T09:05:13.201Z,5.10
2019-02-18T09:07:41.526Z,5.20
2019-02-18T09:10:12.051Z,5.30
2019-02-18T09:12:40.331Z,5.40
2019-02-18T09:15:10.211Z,5.50
2019-02-18T09:17:38.475Z,5.50
2019-02-18T09:20:08.531Z,5.60
2019-02-18T09:22:41.122Z,5.70
2019-02-18T09:25:17.114Z,5.90
2019-02-18T09:27:45.471Z,6.00
2019-02-18T09:30:15.350Z,6.10
2019-02-18T09:32:43.646Z,6.10
2019-02-18T09:35:11.915Z,6.20
2019-02-18T09:37:40.178Z,6.30
2019-02-18T09:40:10.413Z,6.50
2019-02-18T09:42:38.678Z,6.70
2019-02-18T09:45:10.636Z,6.80
2019-02-18T09:47:38.842Z,6.90
2019-02-18T09:50:08.828Z,7.00
2019-02-18T09:52:37.101Z,7.10
2019-02-18T09:55:08.294Z,7.30
2019-02-18T09:57:36.542Z,7.40
2019-02-18T10:00:08.370Z,7.50
2019-02-18T10:02:36.590Z,7.60
2019-02-18T10:05:05.474Z,7.60
2019-02-18T10:07:33.746Z,7.80
2019-02-18T10:10:04.611Z,7.90
2019-02-18T10:12:32.139Z,8.00
2019-02-18T10:15:00.575Z,8.20
2019-02-18T10:17:28.958Z,8.20
2019-02-18T10:19:57.282Z,8.20
2019-02-18T10:22:25.555Z,8.30
2019-02-18T10:24:53.826Z,8.40
2019-02-18T10:27:22.110Z,8.50
2019-02-18T10:29:50.424Z,8.50
2019-02-18T10:32:18.762Z,8.60
2019-02-18T10:34:47.126Z,8.80
2019-02-18T10:37:15.400Z,8.80
2019-02-18T10:39:43.669Z,8.90
2019-02-18T10:42:12.005Z,9.00
2019-02-18T10:44:44.823Z,9.20
2019-02-18T10:47:13.122Z,9.20
2019-02-18T10:49:41.434Z,9.30
2019-02-18T10:52:09.857Z,9.50
2019-02-18T10:54:38.185Z,9.70
2019-02-18T10:57:06.752Z,9.80
2019-02-18T10:59:35.150Z,9.90
2019-02-18T11:02:03.923Z,10.00
2019-02-18T11:04:32.536Z,10.10
2019-02-18T11:07:00.853Z,10.10
2019-02-18T11:09:29.261Z,10.20
2019-02-18T11:11:57.514Z,10.40
2019-02-18T11:14:25.798Z,10.40
2019-02-18T11:16:54.065Z,10.50
2019-02-18T11:19:25.142Z,10.60
2019-02-18T11:21:53.509Z,10.70
2019-02-18T11:24:21.781Z,10.90
2019-02-18T11:26:50.470Z,11.00
2019-02-18T11:29:18.750Z,11.10
2019-02-18T11:31:47.039Z,11.20
2019-02-18T11:34:15.293Z,11.20
2019-02-18T11:36:43.593Z,11.40
2019-02-18T11:39:12.486Z,11.40
2019-02-18T11:41:41.160Z,11.50
2019-02-18T11:44:09.418Z,11.50
2019-02-18T11:46:37.783Z,11.40
2019-02-18T11:49:06.105Z,11.50
2019-02-18T11:51:34.550Z,11.70
2019-02-18T11:54:02.815Z,11.60
2019-02-18T11:56:31.207Z,11.70
2019-02-18T11:58:59.501Z,11.80
2019-02-18T12:01:28.390Z,12.00
2019-02-18T12:03:56.918Z,12.10
2019-02-18T12:06:25.246Z,12.00
2019-02-18T12:08:53.586Z,12.00
2019-02-18T12:11:21.996Z,12.10
2019-02-18T12:13:50.460Z,12.30
2019-02-18T12:16:18.884Z,12.30
2019-02-18T12:18:47.149Z,12.30
2019-02-18T12:21:15.428Z,12.40
2019-02-18T12:23:43.702Z,12.50
2019-02-18T12:26:12.184Z,12.50
2019-02-18T12:28:40.437Z,12.70
2019-02-18T12:31:08.999Z,12.70
2019-02-18T12:33:40.320Z,12.60
2019-02-18T12:36:08.670Z,12.80
2019-02-18T12:38:37.006Z,12.80
2019-02-18T12:41:05.450Z,12.90
2019-02-18T12:43:33.735Z,12.90
2019-02-18T12:46:03.544Z,12.90
2019-02-18T12:48:35.280Z,12.80
2019-02-18T12:51:02.343Z,12.90
2019-02-18T12:53:30.700Z,13.00
2019-02-18T12:55:59.047Z,13.10
2019-02-18T12:58:27.347Z,13.20
2019-02-18T13:00:55.605Z,13.10
2019-02-18T13:03:24.315Z,13.10
2019-02-18T13:05:53.041Z,13.20
2019-02-18T13:08:21.394Z,13.20
2019-02-18T13:10:49.729Z,13.10
2019-02-18T13:13:18.079Z,13.20
2019-02-18T13:15:46.449Z,13.30
2019-02-18T13:18:14.841Z,13.30
2019-02-18T13:20:43.374Z,13.40
2019-02-18T13:23:16.062Z,13.40
2019-02-18T13:25:47.539Z,13.40
2019-02-18T13:28:14.366Z,13.30
2019-02-18T13:30:42.749Z,13.20
2019-02-18T13:33:11.030Z,13.30
2019-02-18T13:35:39.372Z,13.40
2019-02-18T13:38:08.083Z,13.40
2019-02-18T13:40:36.463Z,13.40
2019-02-18T13:43:04.853Z,13.40
2019-02-18T13:45:33.145Z,13.40
2019-02-18T13:48:01.543Z,13.50
2019-02-18T13:50:29.946Z,13.50
2019-02-18T13:52:58.302Z,13.50
2019-02-18T13:55:26.740Z,13.60
2019-02-18T13:57:55.014Z,13.60
2019-02-18T14:00:23.355Z,13.50
2019-02-18T14:02:51.702Z,13.50
2019-02-18T14:05:21.426Z,13.50
2019-02-18T14:07:49.790Z,13.50
2019-02-18T14:10:18.724Z,13.60
2019-02-18T14:12:47.105Z,13.60
2019-02-18T14:15:17.570Z,13.70
2019-02-18T14:17:46.069Z,13.60
2019-02-18T14:20:15.468Z,13.70
2019-02-18T14:22:43.826Z,13.60
2019-02-18T14:25:12.611Z,13.70
2019-02-18T14:27:42.292Z,13.70
2019-02-18T14:30:12.819Z,13.70
2019-02-18T14:32:41.133Z,13.70
2019-02-18T14:35:09.618Z,13.70
2019-02-18T14:37:37.934Z,13.60
2019-02-18T14:40:11.303Z,13.60
2019-02-18T14:42:39.646Z,13.60
2019-02-18T14:45:09.325Z,13.50
2019-02-18T14:47:37.711Z,13.50
2019-02-18T14:50:08.010Z,13.50
2019-02-18T14:52:39.439Z,13.40
2019-02-18T14:55:08.809Z,13.30
2019-02-18T14:57:37.159Z,13.20
2019-02-18T15:00:18.486Z,13.40
2019-02-18T15:02:49.684Z,13.40
2019-02-18T15:05:18.055Z,13.50
2019-02-18T15:07:46.566Z,13.40
2019-02-18T15:10:15.508Z,13.30
2019-02-18T15:12:43.904Z,13.40
2019-02-18T15:15:12.366Z,13.20
2019-02-18T15:17:40.661Z,13.30
2019-02-18T15:20:11.635Z,13.40
2019-02-18T15:22:40.554Z,13.40
2019-02-18T15:25:12.002Z,13.40
2019-02-18T15:27:40.277Z,13.40
2019-02-18T15:30:11.436Z,13.30
2019-02-18T15:32:39.779Z,13.40
2019-02-18T15:35:10.127Z,13.40
2019-02-18T15:37:38.083Z,13.20
2019-02-18T15:40:11.836Z,13.20
2019-02-18T15:42:42.587Z,13.20
2019-02-18T15:45:10.088Z,13.10
2019-02-18T15:47:38.359Z,13.10
2019-02-18T15:50:13.323Z,12.90
2019-02-18T15:52:41.579Z,12.80
2019-02-18T15:55:10.668Z,12.70
2019-02-18T15:57:39.048Z,12.50
2019-02-18T16:00:13.589Z,12.30
2019-02-18T16:02:41.934Z,12.00
2019-02-18T16:05:10.240Z,11.80
2019-02-18T16:07:38.498Z,11.60
2019-02-18T16:10:08.614Z,11.30
2019-02-18T16:12:36.965Z,11.10
2019-02-18T16:15:07.434Z,10.90
2019-02-18T16:17:35.872Z,10.80
2019-02-18T16:20:07.233Z,10.60
2019-02-18T16:22:35.536Z,10.40
2019-02-18T16:25:05.326Z,10.30
2019-02-18T16:27:33.608Z,10.10
2019-02-18T16:30:02.903Z,9.90
2019-02-18T16:32:31.584Z,9.80
2019-02-18T16:34:59.841Z,9.60
2019-02-18T16:37:29.819Z,9.50
2019-02-18T16:39:58.103Z,9.50
2019-02-18T16:42:26.347Z,9.40
2019-02-18T16:44:54.943Z,9.30
2019-02-18T16:47:23.326Z,9.20
2019-02-18T16:49:51.787Z,9.10
2019-02-18T16:52:20.079Z,9.00
2019-02-18T16:54:48.338Z,8.90
2019-02-18T16:57:16.726Z,8.80
2019-02-18T16:59:45.001Z,8.70
2019-02-18T17:02:13.395Z,8.50
2019-02-18T17:04:45.574Z,8.40
2019-02-18T17:07:16.227Z,8.30
2019-02-18T17:09:44.478Z,8.20
2019-02-18T17:12:12.743Z,8.10
2019-02-18T17:14:41.837Z,8.00
2019-02-18T17:17:10.299Z,7.90
2019-02-18T17:19:39.884Z,7.80
2019-02-18T17:22:08.162Z,7.80
2019-02-18T17:24:36.527Z,7.70
2019-02-18T17:27:04.778Z,7.80
2019-02-18T17:29:33.131Z,7.80
2019-02-18T17:32:01.406Z,7.90
2019-02-18T17:34:29.738Z,7.90
2019-02-18T17:36:58.516Z,7.80
2019-02-18T17:39:26.817Z,7.80
2019-02-18T17:41:55.096Z,7.70
2019-02-18T17:44:23.389Z,7.70
2019-02-18T17:46:51.732Z,7.70
2019-02-18T17:49:20.006Z,7.60
2019-02-18T17:51:48.234Z,7.50
2019-02-18T17:54:16.693Z,7.60
2019-02-18T17:56:45.044Z,7.60
2019-02-18T17:59:13.266Z,7.60
2019-02-18T18:01:41.504Z,7.60
2019-02-18T18:04:09.817Z,7.60
2019-02-18T18:06:38.335Z,7.70
2019-02-18T18:09:07.525Z,7.60
2019-02-18T18:11:35.906Z,7.60
2019-02-18T18:14:04.163Z,7.60
2019-02-18T18:16:32.551Z,7.50
2019-02-18T18:19:08.902Z,7.50
2019-02-18T18:21:30.952Z,7.40
2019-02-18T18:23:59.293Z,7.30
2019-02-18T18:26:27.763Z,7.30
2019-02-18T18:28:56.046Z,7.30
2019-02-18T18:31:24.473Z,7.30
2019-02-18T18:33:52.866Z,7.40
2019-02-18T18:36:21.137Z,7.40
2019-02-18T18:38:49.378Z,7.40
2019-02-18T18:41:18.017Z,7.40
2019-02-18T18:43:46.294Z,7.40
2019-02-18T18:46:14.691Z,7.40
2019-02-18T18:48:43.435Z,7.30
2019-02-18T18:51:11.743Z,7.10
2019-02-18T18:53:40.062Z,6.90
2019-02-18T18:56:08.635Z,6.70
2019-02-18T18:58:36.891Z,6.70
2019-02-18T19:01:06.790Z,6.50
2019-02-18T19:03:35.078Z,6.40
2019-02-18T19:06:03.339Z,6.30
2019-02-18T19:08:31.774Z,6.20
2019-02-18T19:11:00.039Z,6.00
2019-02-18T19:13:28.334Z,5.90
2019-02-18T19:15:56.603Z,5.90
2019-02-18T19:18:24.834Z,5.90
2019-02-18T19:20:53.121Z,5.80
2019-02-18T19:23:21.370Z,5.80
2019-02-18T19:25:49.670Z,5.90
2019-02-18T19:28:17.958Z,5.90
2019-02-18T19:30:46.292Z,5.70
2019-02-18T19:33:14.623Z,5.70
2019-02-18T19:35:42.912Z,5.70
2019-02-18T19:38:17.221Z,5.60
2019-02-18T19:40:51.491Z,5.60
2019-02-18T19:43:19.816Z,5.60
2019-02-18T19:45:48.263Z,5.50
2019-02-18T19:48:16.845Z,5.50
2019-02-18T19:50:45.160Z,5.70
2019-02-18T19:53:13.596Z,5.70
2019-02-18T19:55:42.240Z,5.90
2019-02-18T19:58:11.692Z,5.80
2019-02-18T20:00:40.145Z,5.70
2019-02-18T20:03:08.445Z,5.70
2019-02-18T20:05:36.717Z,5.60
2019-02-18T20:08:05.084Z,5.60
2019-02-18T20:10:33.969Z,5.60
2019-02-18T20:13:04.060Z,5.60
2019-02-18T20:15:32.246Z,5.60
2019-02-18T20:18:00.574Z,5.70
2019-02-18T20:20:28.835Z,6.00
2019-02-18T20:22:57.078Z,6.20
2019-02-18T20:25:25.365Z,6.20
2019-02-18T20:27:53.641Z,6.80
2019-02-18T20:30:21.905Z,7.00
2019-02-18T20:32:50.146Z,7.20
2019-02-18T20:35:18.410Z,7.30
2019-02-18T20:37:46.691Z,7.10
2019-02-18T20:40:15.795Z,7.00
2019-02-18T20:42:44.096Z,6.70
2019-02-18T20:45:13.446Z,6.80
2019-02-18T20:47:41.750Z,6.90
2019-02-18T20:50:14.517Z,6.60
2019-02-18T20:52:42.893Z,6.50
2019-02-18T20:55:15.368Z,6.30
2019-02-18T20:57:43.730Z,6.60
2019-02-18T21:00:17.646Z,6.60
2019-02-18T21:02:46.032Z,6.80
2019-02-18T21:05:14.305Z,7.10
2019-02-18T21:08:02.069Z,7.20
2019-02-18T21:10:30.316Z,7.50
2019-02-18T21:12:58.632Z,7.80
2019-02-18T21:15:27.074Z,8.00
2019-02-18T21:17:55.401Z,8.00
2019-02-18T21:20:23.735Z,8.00
2019-02-18T21:22:52.018Z,8.30
2019-02-18T21:25:20.373Z,8.50
2019-02-18T21:27:48.686Z,8.30
2019-02-18T21:30:17.858Z,8.10
2019-02-18T21:32:46.128Z,7.80
2019-02-18T21:35:17.394Z,7.50
2019-02-18T21:37:45.921Z,7.40
2019-02-18T21:40:14.195Z,7.30
2019-02-18T21:42:42.581Z,7.40
2019-02-18T21:45:12.903Z,7.50
2019-02-18T21:47:42.782Z,7.60
2019-02-18T21:50:11.387Z,7.90
2019-02-18T21:52:40.090Z,8.00
2019-02-18T21:55:10.163Z,8.00
2019-02-18T21:57:38.933Z,8.20
2019-02-18T22:00:21.021Z,8.20
2019-02-18T22:02:49.564Z,8.30
2019-02-18T22:05:18.075Z,8.40
2019-02-18T22:07:46.324Z,8.40
2019-02-18T22:10:14.789Z,8.40
2019-02-18T22:12:43.201Z,8.40
2019-02-18T22:15:13.177Z,8.30
2019-02-18T22:17:43.048Z,8.30
2019-02-18T22:20:12.466Z,8.30
2019-02-18T22:22:41.007Z,8.40
2019-02-18T22:25:12.788Z,8.50
2019-02-18T22:27:41.250Z,8.50
2019-02-18T22:30:14.410Z,8.50
2019-02-18T22:32:41.989Z,8.60
2019-02-18T22:35:10.494Z,8.60
2019-02-18T22:37:38.983Z,8.50
2019-02-18T22:40:09.380Z,8.40
2019-02-18T22:42:37.625Z,8.30
2019-02-18T22:45:07.609Z,8.30
2019-02-18T22:47:35.908Z,8.30
2019-02-18T22:50:04.138Z,8.30
2019-02-18T22:52:32.921Z,8.20
2019-02-18T22:55:01.199Z,8.30
2019-02-18T22:57:29.481Z,8.30
2019-02-18T22:59:57.839Z,8.40
2019-02-18T23:02:26.111Z,8.40
2019-02-18T23:05:13.855Z,8.50
2019-02-18T23:07:42.107Z,8.40
2019-02-18T23:10:10.388Z,8.40
2019-02-18T23:12:38.626Z,8.40
2019-02-18T23:15:06.887Z,8.40
2019-02-18T23:17:35.213Z,8.40
2019-02-18T23:20:03.539Z,8.40
2019-02-18T23:22:32.287Z,8.50
2019-02-18T23:25:00.619Z,8.50
2019-02-18T23:27:28.873Z,8.60
2019-02-18T23:29:57.302Z,8.50
2019-02-18T23:32:25.619Z,8.50
2019-02-18T23:34:53.849Z,8.60
2019-02-18T23:37:22.080Z,8.60
2019-02-18T23:39:50.372Z,8.60
2019-02-18T23:42:18.742Z,8.60
2019-02-18T23:44:47.116Z,8.60
2019-02-18T23:47:15.335Z,8.50
2019-02-18T23:49:43.610Z,8.60
2019-02-18T23:52:11.936Z,8.40
2019-02-18T23:54:40.192Z,8.20
2019-02-18T23:57:28.170Z,8.30
2019-02-18T23:59:56.415Z,8.30
